createdAt,value
2023-02-17T00:01:27.543Z,1.10
2023-02-17T00:03:55.414Z,1.02
2023-02-17T00:06:24.893Z,1.27
2023-02-17T00:08:52.885Z,1.25
2023-02-17T00:11:20.913Z,0.98
2023-02-17T00:13:48.441Z,1.00
2023-02-17T00:16:26.651Z,0.98
2023-02-17T00:19:02.038Z,0.82
2023-02-17T00:21:32.103Z,0.90
2023-02-17T00:24:00.280Z,0.80
2023-02-17T00:26:27.874Z,0.90
2023-02-17T00:28:55.234Z,0.60
2023-02-17T00:31:24.218Z,0.70
2023-02-17T00:33:55.655Z,0.80
2023-02-17T00:36:23.410Z,0.85
2023-02-17T00:38:50.874Z,0.65
2023-02-17T00:41:19.104Z,0.85
2023-02-17T00:43:47.504Z,0.57
2023-02-17T00:46:17.936Z,0.60
2023-02-17T00:48:46.087Z,0.75
2023-02-17T00:51:14.345Z,0.55
2023-02-17T00:53:41.840Z,0.65
2023-02-17T00:56:09.756Z,0.63
2023-02-17T00:58:38.277Z,0.47
2023-02-17T01:01:05.747Z,0.60
2023-02-17T01:03:32.997Z,0.57
2023-02-17T01:06:04.951Z,0.60
2023-02-17T01:08:34.368Z,0.70
2023-02-17T01:11:01.791Z,0.52
2023-02-17T01:13:29.028Z,0.60
2023-02-17T01:15:56.319Z,0.60
2023-02-17T01:18:24.713Z,0.52
2023-02-17T01:20:52.839Z,0.50
2023-02-17T01:23:20.592Z,1.08
2023-02-17T01:25:50.710Z,0.50
2023-02-17T01:28:21.552Z,0.40
2023-02-17T01:30:49.490Z,0.50
2023-02-17T01:33:17.053Z,0.50
2023-02-17T01:35:45.667Z,0.50
2023-02-17T01:38:13.036Z,0.60
2023-02-17T01:40:47.867Z,0.70
2023-02-17T01:43:17.912Z,0.60
2023-02-17T01:46:06.641Z,0.60
2023-02-17T01:48:40.119Z,0.45
2023-02-17T01:51:15.172Z,0.77
2023-02-17T01:53:59.439Z,0.50
2023-02-17T01:56:27.520Z,0.70
2023-02-17T01:59:01.063Z,0.73
2023-02-17T02:01:30.133Z,0.70
2023-02-17T02:03:59.648Z,0.90
2023-02-17T02:06:29.135Z,0.60
2023-02-17T02:09:02.933Z,0.70
2023-02-17T02:11:30.321Z,0.73
2023-02-17T02:13:58.934Z,2.05
2023-02-17T02:16:52.618Z,1.23
2023-02-17T02:19:38.740Z,0.80
2023-02-17T02:22:09.040Z,0.82
2023-02-17T02:25:11.477Z,0.90
2023-02-17T02:27:54.131Z,0.95
2023-02-17T02:30:49.771Z,0.70
2023-02-17T02:33:56.842Z,0.57
2023-02-17T02:36:37.906Z,1.30
2023-02-17T02:39:11.483Z,0.68
2023-02-17T02:41:44.318Z,1.42
2023-02-17T02:44:17.650Z,0.82
2023-02-17T02:46:45.177Z,0.70
2023-02-17T02:49:12.580Z,0.60
2023-02-17T02:51:49.152Z,1.00
2023-02-17T02:54:45.186Z,0.98
2023-02-17T02:57:42.781Z,0.52
2023-02-17T03:00:21.223Z,0.80
2023-02-17T03:03:03.249Z,0.75
2023-02-17T03:05:54.575Z,0.82
2023-02-17T03:08:44.103Z,1.00
2023-02-17T03:11:12.899Z,1.10
2023-02-17T03:13:41.149Z,0.90
2023-02-17T03:16:14.642Z,0.90
2023-02-17T03:18:42.525Z,1.00
2023-02-17T03:21:17.381Z,0.77
2023-02-17T03:26:11.780Z,1.08
2023-02-17T03:28:39.148Z,1.70
2023-02-17T03:31:06.615Z,0.80
2023-02-17T03:33:34.115Z,0.93
2023-02-17T03:36:01.363Z,0.82
2023-02-17T03:38:28.580Z,0.70
2023-02-17T03:40:55.745Z,0.65
2023-02-17T03:43:22.944Z,0.90
2023-02-17T03:45:50.210Z,0.80
2023-02-17T03:48:17.484Z,0.60
2023-02-17T03:50:44.787Z,0.60
2023-02-17T03:53:12.403Z,0.70
2023-02-17T03:55:39.578Z,0.82
2023-02-17T03:58:06.808Z,0.90
2023-02-17T04:00:34.290Z,0.60
2023-02-17T04:03:01.703Z,0.82
2023-02-17T04:05:29.001Z,0.63
2023-02-17T04:07:56.253Z,0.68
2023-02-17T04:10:23.477Z,0.75
2023-02-17T04:12:50.650Z,0.60
2023-02-17T04:15:17.965Z,0.80
2023-02-17T04:17:45.211Z,0.50
2023-02-17T04:20:12.776Z,0.90
2023-02-17T04:22:39.962Z,0.68
2023-02-17T04:25:07.225Z,0.52
2023-02-17T04:27:34.396Z,0.73
2023-02-17T04:30:01.693Z,0.70
2023-02-17T04:32:28.916Z,0.80
2023-02-17T04:34:56.177Z,0.60
2023-02-17T04:37:23.650Z,0.50
2023-02-17T04:39:50.879Z,0.47
2023-02-17T04:42:18.134Z,0.40
2023-02-17T04:44:45.307Z,0.50
2023-02-17T04:47:12.683Z,0.30
2023-02-17T04:49:39.908Z,0.35
2023-02-17T04:52:07.231Z,0.20
2023-02-17T04:54:34.586Z,0.20
2023-02-17T04:57:01.797Z,0.30
2023-02-17T04:59:29.131Z,0.15
2023-02-17T05:01:56.277Z,0.30
2023-02-17T05:04:23.485Z,0.20
2023-02-17T05:06:50.743Z,0.17
2023-02-17T05:09:17.913Z,0.20
2023-02-17T05:11:45.314Z,0.55
2023-02-17T05:14:12.690Z,0.20
2023-02-17T05:16:39.941Z,0.13
2023-02-17T05:19:07.218Z,0.25
2023-02-17T05:21:34.615Z,0.20
2023-02-17T05:24:01.888Z,0.20
2023-02-17T05:26:29.128Z,0.20
2023-02-17T05:28:56.521Z,0.28
2023-02-17T05:31:24.601Z,0.30
2023-02-17T05:33:54.396Z,0.15
2023-02-17T05:36:21.681Z,0.10
2023-02-17T05:38:50.026Z,0.10
2023-02-17T05:41:17.971Z,0.30
2023-02-17T05:43:46.247Z,0.20
2023-02-17T05:46:13.964Z,0.30
2023-02-17T05:48:41.277Z,0.35
2023-02-17T05:51:08.938Z,0.22
2023-02-17T05:53:36.213Z,0.10
2023-02-17T05:56:03.719Z,0.20
2023-02-17T05:58:31.092Z,0.10
2023-02-17T06:00:58.271Z,0.17
2023-02-17T06:03:25.477Z,0.20
2023-02-17T06:05:53.023Z,0.10
2023-02-17T06:08:20.265Z,0.10
2023-02-17T06:10:47.463Z,0.10
2023-02-17T06:13:14.678Z,0.10
2023-02-17T06:15:41.837Z,0.10
2023-02-17T06:18:09.008Z,0.20
2023-02-17T06:20:36.235Z,0.05
2023-02-17T06:23:03.457Z,0.00
2023-02-17T06:25:31.457Z,0.20
2023-02-17T06:27:58.676Z,0.10
2023-02-17T06:30:25.882Z,0.00
2023-02-17T06:32:53.121Z,0.10
2023-02-17T06:35:20.316Z,0.10
2023-02-17T06:37:47.562Z,0.10
2023-02-17T06:40:15.256Z,0.10
2023-02-17T06:42:42.571Z,0.22
2023-02-17T06:45:10.108Z,0.03
2023-02-17T06:47:37.276Z,0.10
2023-02-17T06:50:04.966Z,0.10
2023-02-17T06:52:32.272Z,0.10
2023-02-17T06:54:59.509Z,0.10
2023-02-17T06:57:26.795Z,0.08
2023-02-17T06:59:53.958Z,0.10
2023-02-17T07:02:21.490Z,0.43
2023-02-17T07:04:48.922Z,0.10
2023-02-17T07:07:16.260Z,0.20
2023-02-17T07:09:43.543Z,0.13
2023-02-17T07:12:10.846Z,0.20
2023-02-17T07:14:38.122Z,0.20
2023-02-17T07:17:05.555Z,0.15
2023-02-17T07:19:32.867Z,0.20
2023-02-17T07:22:00.129Z,0.10
2023-02-17T07:24:27.396Z,0.20
2023-02-17T07:26:56.277Z,0.13
2023-02-17T07:29:23.995Z,0.10
2023-02-17T07:31:51.271Z,0.10
2023-02-17T07:34:18.727Z,0.10
2023-02-17T07:36:45.976Z,0.10
2023-02-17T07:39:13.236Z,0.17
2023-02-17T07:41:40.493Z,0.10
2023-02-17T07:44:10.610Z,0.10
2023-02-17T07:46:39.878Z,0.20
2023-02-17T07:49:07.240Z,0.20
2023-02-17T07:51:34.602Z,0.17
2023-02-17T07:54:02.669Z,0.15
2023-02-17T07:56:30.316Z,0.10
2023-02-17T07:58:57.581Z,0.10
2023-02-17T08:01:25.929Z,0.10
2023-02-17T08:03:53.285Z,0.13
2023-02-17T08:06:25.476Z,0.00
2023-02-17T08:09:12.276Z,0.10
2023-02-17T08:11:59.544Z,0.10
2023-02-17T08:14:28.906Z,0.00
2023-02-17T08:16:56.681Z,0.10
2023-02-17T08:19:27.174Z,0.10
2023-02-17T08:21:57.233Z,0.10
2023-02-17T08:24:24.823Z,0.10
2023-02-17T08:26:52.257Z,0.10
2023-02-17T08:29:20.471Z,0.10
2023-02-17T08:31:52.364Z,0.10
2023-02-17T08:34:19.947Z,0.10
2023-02-17T08:36:47.237Z,0.10
2023-02-17T08:39:17.311Z,0.52
2023-02-17T08:41:45.531Z,0.10
2023-02-17T08:44:18.798Z,0.30
2023-02-17T08:46:48.261Z,0.00
2023-02-17T08:49:17.783Z,0.05
2023-02-17T08:51:45.597Z,0.00
2023-02-17T08:54:13.823Z,0.10
2023-02-17T08:56:41.946Z,0.10
2023-02-17T08:59:11.665Z,0.10
2023-02-17T09:01:40.112Z,0.03
2023-02-17T09:04:09.178Z,0.10
2023-02-17T09:06:39.221Z,0.03
2023-02-17T09:09:09.115Z,0.10
2023-02-17T09:11:36.827Z,0.10
2023-02-17T09:14:05.300Z,0.10
2023-02-17T09:16:32.804Z,0.10
2023-02-17T09:19:00.349Z,0.10
2023-02-17T09:21:27.804Z,0.10
2023-02-17T09:23:55.385Z,0.40
2023-02-17T09:26:22.840Z,0.08
2023-02-17T09:28:50.512Z,0.10
2023-02-17T09:31:22.110Z,0.10
2023-02-17T09:33:50.522Z,0.10
2023-02-17T09:36:21.873Z,0.95
2023-02-17T09:38:49.837Z,0.10
2023-02-17T09:41:17.328Z,0.20
2023-02-17T09:43:45.732Z,0.10
2023-02-17T09:46:23.259Z,0.13
2023-02-17T09:48:52.412Z,0.10
2023-02-17T09:51:58.420Z,0.10
2023-02-17T09:54:35.424Z,0.20
2023-02-17T09:57:06.755Z,0.22
2023-02-17T09:59:45.336Z,0.08
2023-02-17T10:02:24.216Z,0.10
2023-02-17T10:04:54.242Z,0.10
2023-02-17T10:07:29.317Z,0.20
2023-02-17T10:10:03.825Z,0.10
2023-02-17T10:12:37.456Z,0.15
2023-02-17T10:15:34.824Z,0.20
2023-02-17T10:18:25.471Z,0.25
2023-02-17T10:20:59.928Z,0.10
2023-02-17T10:23:29.211Z,0.30
2023-02-17T10:26:24.513Z,0.50
2023-02-17T10:31:57.973Z,0.40
2023-02-17T10:34:45.449Z,0.20
2023-02-17T10:37:28.156Z,0.10
2023-02-17T10:39:57.301Z,0.20
2023-02-17T10:42:34.618Z,0.13
2023-02-17T10:45:33.886Z,0.20
2023-02-17T10:48:16.267Z,0.20
2023-02-17T10:50:44.603Z,0.20
2023-02-17T10:53:17.661Z,0.50
2023-02-17T10:56:14.578Z,0.20
2023-02-17T10:59:26.143Z,0.10
2023-02-17T11:02:00.731Z,0.15
2023-02-17T11:06:55.900Z,0.05
2023-02-17T11:09:32.019Z,0.13
2023-02-17T11:12:11.026Z,0.17
2023-02-17T11:14:43.883Z,0.00
2023-02-17T11:17:49.633Z,0.17
2023-02-17T11:20:17.108Z,0.20
2023-02-17T11:23:04.670Z,0.10
2023-02-17T11:25:35.430Z,0.20
2023-02-17T11:28:06.912Z,0.10
2023-02-17T11:30:36.280Z,0.10
2023-02-17T11:33:21.927Z,0.10
2023-02-17T11:35:56.427Z,0.20
2023-02-17T11:38:42.491Z,0.15
2023-02-17T11:41:11.159Z,0.10
2023-02-17T11:43:39.921Z,0.40
2023-02-17T11:46:33.331Z,0.20
2023-02-17T11:49:15.854Z,0.20
2023-02-17T11:52:15.446Z,0.32
2023-02-17T11:55:21.659Z,0.20
2023-02-17T11:58:10.660Z,0.30
2023-02-17T12:01:26.344Z,0.40
2023-02-17T12:04:21.583Z,0.30
2023-02-17T12:07:19.611Z,0.63
2023-02-17T12:10:02.959Z,0.40
2023-02-17T12:13:07.279Z,0.20
2023-02-17T12:16:08.946Z,0.30
2023-02-17T12:19:08.016Z,0.40
2023-02-17T12:21:54.311Z,0.30
2023-02-17T12:24:36.702Z,0.20
2023-02-17T12:27:25.044Z,0.30
2023-02-17T12:30:12.834Z,0.20
2023-02-17T12:32:49.054Z,0.40
2023-02-17T12:35:23.854Z,0.20
2023-02-17T12:37:58.561Z,0.20
2023-02-17T12:43:06.919Z,0.30
2023-02-17T12:45:40.888Z,0.40
2023-02-17T12:48:26.471Z,0.40
2023-02-17T12:51:15.390Z,0.40
2023-02-17T12:54:21.009Z,0.35
2023-02-17T12:59:34.752Z,0.20
2023-02-17T13:02:06.116Z,0.40
2023-02-17T13:04:35.384Z,0.40
2023-02-17T13:07:02.534Z,0.30
2023-02-17T13:09:44.802Z,0.40
2023-02-17T13:12:23.944Z,0.30
2023-02-17T13:14:55.638Z,0.40
2023-02-17T13:17:38.744Z,0.30
2023-02-17T13:20:11.664Z,0.30
2023-02-17T13:22:41.132Z,0.30
2023-02-17T13:25:13.267Z,0.30
2023-02-17T13:27:41.326Z,0.30
2023-02-17T13:30:29.309Z,0.30
2023-02-17T13:33:04.818Z,0.43
2023-02-17T13:35:37.260Z,0.30
2023-02-17T13:38:04.640Z,0.20
2023-02-17T13:40:43.774Z,0.30
2023-02-17T13:43:16.972Z,0.10
2023-02-17T13:46:03.975Z,0.20
2023-02-17T13:48:33.758Z,0.20
2023-02-17T13:51:03.342Z,0.20
2023-02-17T13:53:32.521Z,0.30
2023-02-17T13:56:10.619Z,0.30
2023-02-17T13:58:40.623Z,0.30
2023-02-17T14:01:16.892Z,0.40
2023-02-17T14:03:53.053Z,0.30
2023-02-17T14:06:42.633Z,0.20
2023-02-17T14:09:31.038Z,0.20
2023-02-17T14:12:01.226Z,0.30
2023-02-17T14:14:32.231Z,0.20
2023-02-17T14:17:05.634Z,0.10
2023-02-17T14:19:49.236Z,0.20
2023-02-17T14:22:53.136Z,0.40
2023-02-17T14:25:32.328Z,0.40
2023-02-17T14:27:59.588Z,0.30
2023-02-17T14:30:30.857Z,0.20
2023-02-17T14:33:23.601Z,0.30
2023-02-17T14:35:59.448Z,0.20
2023-02-17T14:38:32.364Z,0.20
2023-02-17T14:41:01.259Z,0.35
2023-02-17T14:43:28.483Z,0.22
2023-02-17T14:45:55.717Z,0.25
2023-02-17T14:48:23.165Z,0.30
2023-02-17T14:50:50.545Z,0.17
2023-02-17T14:53:23.550Z,0.00
2023-02-17T14:55:56.501Z,0.20
2023-02-17T14:58:24.793Z,0.20
2023-02-17T15:00:52.533Z,0.32
2023-02-17T15:03:19.741Z,0.20
2023-02-17T15:05:47.202Z,0.20
2023-02-17T15:08:21.394Z,0.20
2023-02-17T15:10:49.541Z,0.20
2023-02-17T15:13:20.108Z,0.20
2023-02-17T15:15:49.443Z,0.30
2023-02-17T15:18:18.826Z,0.20
2023-02-17T15:20:50.192Z,0.20
2023-02-17T15:23:20.310Z,0.17
2023-02-17T15:25:48.562Z,0.20
2023-02-17T15:28:18.481Z,0.40
2023-02-17T15:30:55.683Z,0.20
2023-02-17T15:33:24.086Z,0.20
2023-02-17T15:35:56.289Z,0.20
2023-02-17T15:38:24.575Z,0.20
2023-02-17T15:40:51.817Z,0.20
2023-02-17T15:43:21.898Z,0.20
2023-02-17T15:45:49.537Z,0.20
2023-02-17T15:48:24.777Z,0.30
2023-02-17T15:50:52.695Z,0.40
2023-02-17T15:53:20.013Z,0.32
2023-02-17T15:55:47.993Z,0.30
2023-02-17T15:58:18.728Z,0.20
2023-02-17T16:00:46.689Z,0.30
2023-02-17T16:03:14.620Z,0.30
2023-02-17T16:05:42.498Z,0.30
2023-02-17T16:08:10.122Z,0.20
2023-02-17T16:10:39.636Z,0.20
2023-02-17T16:13:08.107Z,0.20
2023-02-17T16:15:37.605Z,0.30
2023-02-17T16:18:04.916Z,0.50
2023-02-17T16:20:34.836Z,0.30
2023-02-17T16:23:03.203Z,0.20
2023-02-17T16:25:30.545Z,0.40
2023-02-17T16:27:57.871Z,0.30
2023-02-17T16:30:34.943Z,0.35
2023-02-17T16:33:03.385Z,0.30
2023-02-17T16:35:32.613Z,0.20
2023-02-17T16:38:11.980Z,0.13
2023-02-17T16:40:47.266Z,0.30
2023-02-17T16:43:21.902Z,0.20
2023-02-17T16:48:22.840Z,0.70
2023-02-17T16:50:50.067Z,0.30
2023-02-17T16:53:17.281Z,0.20
2023-02-17T16:55:44.991Z,0.20
2023-02-17T16:58:18.481Z,0.30
2023-02-17T17:00:47.907Z,0.40
2023-02-17T17:03:15.202Z,0.32
2023-02-17T17:05:43.057Z,0.30
2023-02-17T17:08:16.274Z,0.30
2023-02-17T17:10:47.339Z,0.25
2023-02-17T17:13:14.555Z,0.20
2023-02-17T17:15:43.812Z,0.30
2023-02-17T17:18:21.098Z,0.10
2023-02-17T17:20:48.690Z,0.10
2023-02-17T17:23:16.288Z,0.28
2023-02-17T17:25:46.679Z,0.28
2023-02-17T17:28:19.268Z,0.30
2023-02-17T17:30:46.991Z,0.30
2023-02-17T17:33:14.427Z,0.20
2023-02-17T17:35:41.830Z,0.20
2023-02-17T17:38:15.468Z,0.30
2023-02-17T17:40:53.327Z,0.38
2023-02-17T17:43:22.033Z,0.60
2023-02-17T17:45:51.487Z,0.30
2023-02-17T17:48:19.013Z,1.15
2023-02-17T17:50:48.230Z,0.70
2023-02-17T17:53:15.460Z,0.40
2023-02-17T17:55:42.724Z,0.20
2023-02-17T17:58:10.228Z,0.20
2023-02-17T18:00:37.538Z,0.30
2023-02-17T18:03:05.210Z,0.25
2023-02-17T18:05:32.428Z,0.30
2023-02-17T18:08:00.591Z,0.30
2023-02-17T18:10:28.055Z,0.30
2023-02-17T18:12:55.728Z,0.25
2023-02-17T18:15:23.077Z,0.30
2023-02-17T18:17:51.752Z,0.30
2023-02-17T18:20:19.137Z,0.40
2023-02-17T18:22:46.433Z,0.30
2023-02-17T18:25:13.799Z,0.22
2023-02-17T18:27:44.027Z,0.50
2023-02-17T18:30:15.606Z,0.40
2023-02-17T18:32:44.293Z,0.45
2023-02-17T18:35:12.649Z,0.65
2023-02-17T18:37:41.191Z,0.65
2023-02-17T18:40:12.785Z,0.40
2023-02-17T18:42:45.552Z,0.47
2023-02-17T18:45:13.520Z,0.30
2023-02-17T18:47:43.102Z,0.60
2023-02-17T18:50:11.779Z,0.50
2023-02-17T18:52:40.416Z,0.40
2023-02-17T18:55:08.263Z,0.52
2023-02-17T18:57:36.184Z,0.50
2023-02-17T19:00:06.031Z,0.50
2023-02-17T19:02:36.384Z,0.40
2023-02-17T19:05:04.737Z,0.50
2023-02-17T19:07:31.929Z,0.50
2023-02-17T19:09:59.160Z,0.30
2023-02-17T19:12:26.820Z,0.60
2023-02-17T19:14:57.330Z,0.50
2023-02-17T19:17:25.511Z,0.47
2023-02-17T19:19:53.012Z,0.47
2023-02-17T19:22:20.609Z,0.57
2023-02-17T19:24:52.602Z,0.43
2023-02-17T19:27:20.495Z,0.50
2023-02-17T19:29:47.732Z,0.60
2023-02-17T19:32:15.034Z,0.60
2023-02-17T19:34:42.256Z,0.45
2023-02-17T19:37:09.596Z,0.50
2023-02-17T19:39:37.212Z,0.55
2023-02-17T19:42:05.085Z,0.57
2023-02-17T19:44:32.577Z,0.70
2023-02-17T19:47:00.957Z,0.75
2023-02-17T19:49:28.253Z,0.90
2023-02-17T19:51:55.974Z,0.68
2023-02-17T19:54:24.404Z,0.90
2023-02-17T19:56:52.155Z,0.98
2023-02-17T19:59:19.538Z,0.70
2023-02-17T20:01:47.220Z,0.90
2023-02-17T20:04:14.514Z,1.13
2023-02-17T20:06:47.529Z,0.85
2023-02-17T20:09:20.752Z,0.70
2023-02-17T20:11:49.125Z,0.80
2023-02-17T20:14:16.312Z,0.90
2023-02-17T20:16:43.516Z,1.70
2023-02-17T20:19:10.808Z,1.40
2023-02-17T20:21:38.733Z,1.55
2023-02-17T20:24:06.314Z,0.80
2023-02-17T20:26:38.671Z,1.38
2023-02-17T20:29:06.175Z,2.03
2023-02-17T20:31:35.643Z,1.00
2023-02-17T20:34:08.682Z,1.23
2023-02-17T20:36:35.826Z,3.05
2023-02-17T20:39:03.117Z,2.28
2023-02-17T20:41:30.338Z,2.38
2023-02-17T20:44:02.887Z,2.25
2023-02-17T20:46:30.947Z,1.88
2023-02-17T20:48:58.277Z,2.55
2023-02-17T20:51:25.574Z,2.60
2023-02-17T20:53:52.866Z,2.58
2023-02-17T20:56:23.035Z,3.25
2023-02-17T20:58:50.975Z,2.13
2023-02-17T21:01:18.601Z,3.40
2023-02-17T21:03:47.146Z,2.15
2023-02-17T21:06:32.570Z,2.95
2023-02-17T21:09:06.546Z,2.17
2023-02-17T21:11:34.028Z,2.72
2023-02-17T21:14:01.441Z,3.15
2023-02-17T21:16:31.279Z,4.55
2023-02-17T21:18:59.672Z,2.35
2023-02-17T21:21:27.913Z,3.13
2023-02-17T21:23:56.546Z,2.92
2023-02-17T21:26:23.972Z,2.78
2023-02-17T21:28:51.394Z,2.95
2023-02-17T21:31:19.264Z,2.90
2023-02-17T21:33:46.705Z,3.15
2023-02-17T21:36:16.939Z,5.35
2023-02-17T21:38:44.586Z,9.18
2023-02-17T21:41:19.553Z,8.73
2023-02-17T21:44:05.333Z,7.05
2023-02-17T21:46:32.963Z,9.35
2023-02-17T21:49:01.341Z,7.60
2023-02-17T21:51:29.236Z,8.50
2023-02-17T21:53:56.690Z,8.20
2023-02-17T21:56:24.369Z,8.63
2023-02-17T21:58:54.366Z,7.40
2023-02-17T22:01:22.975Z,10.45
2023-02-17T22:03:50.562Z,10.20
2023-02-17T22:06:17.777Z,10.02
2023-02-17T22:08:45.492Z,11.18
2023-02-17T22:11:18.345Z,11.13
2023-02-17T22:13:46.129Z,10.43
2023-02-17T22:16:13.518Z,12.30
2023-02-17T22:18:41.385Z,10.77
2023-02-17T22:21:10.738Z,8.02
2023-02-17T22:23:38.786Z,8.43
2023-02-17T22:26:14.821Z,9.15
2023-02-17T22:28:42.720Z,11.65
2023-02-17T22:31:13.015Z,10.95
2023-02-17T22:33:40.282Z,7.78
2023-02-17T22:36:10.555Z,7.38
2023-02-17T22:38:38.037Z,9.57
2023-02-17T22:41:13.350Z,9.98
2023-02-17T22:43:42.029Z,9.90
2023-02-17T22:46:11.147Z,8.60
2023-02-17T22:48:39.385Z,7.72
2023-02-17T22:51:08.129Z,5.70
2023-02-17T22:53:36.640Z,5.05
2023-02-17T22:56:05.614Z,5.80
2023-02-17T22:58:34.154Z,4.93
2023-02-17T23:01:11.709Z,5.68
2023-02-17T23:03:39.109Z,6.68
2023-02-17T23:06:12.223Z,4.43
2023-02-17T23:08:39.923Z,4.88
2023-02-17T23:11:08.734Z,4.50
2023-02-17T23:13:36.905Z,4.78
2023-02-17T23:16:05.092Z,3.38
2023-02-17T23:18:33.733Z,3.30
2023-02-17T23:21:08.277Z,2.25
2023-02-17T23:26:03.048Z,2.10
2023-02-17T23:28:30.549Z,1.77
2023-02-17T23:30:57.883Z,1.80
2023-02-17T23:33:25.364Z,2.47
2023-02-17T23:35:52.654Z,2.30
2023-02-17T23:38:21.287Z,1.77
2023-02-17T23:40:52.993Z,1.45
2023-02-17T23:43:21.280Z,1.60
2023-02-17T23:45:49.053Z,1.30
2023-02-17T23:48:16.678Z,1.67
2023-02-17T23:50:44.016Z,1.00
2023-02-17T23:53:11.208Z,0.90
2023-02-17T23:55:38.441Z,1.30
2023-02-17T23:58:05.712Z,1.05
